Time;durP1;ratioP1;P1;durP2;ratioP2;P2;SDS_P1;SDS_P2;PMS_P1;PMS_P2;Temp;Humidity;BMP_temperature;BMP_pressure;BME280_temperature;BME280_humidity;BME280_pressure;Samples;Min_cycle;Max_cycle;Signal;HPM_P1;HPM_P2
2022/12/21 00:02:23;;;;;;;9.57;8.70;;;10.40;99.90;;;;;;5071108;28;20426;-69
2022/12/21 00:04:51;;;;;;;8.50;7.65;;;10.50;99.90;;;;;;5069945;28;20415;-69
2022/12/21 00:07:17;;;;;;;7.90;7.20;;;10.50;99.90;;;;;;5066879;28;20424;-69
2022/12/21 00:09:44;;;;;;;7.20;6.45;;;10.60;99.90;;;;;;5067105;28;20428;-69
2022/12/21 00:12:11;;;;;;;7.10;6.40;;;10.60;99.90;;;;;;5066975;28;20894;-69
2022/12/21 00:14:37;;;;;;;7.10;6.60;;;10.60;99.90;;;;;;5066283;28;20426;-69
2022/12/21 00:17:04;;;;;;;7.50;6.80;;;10.60;99.90;;;;;;5076980;28;20798;-69
2022/12/21 00:19:31;;;;;;;7.93;7.22;;;10.60;99.90;;;;;;5087405;28;20470;-69
2022/12/21 00:21:59;;;;;;;8.85;8.05;;;10.60;99.90;;;;;;5087329;28;20409;-69
2022/12/21 00:24:27;;;;;;;9.02;8.27;;;10.60;99.90;;;;;;5078581;28;20798;-69
2022/12/21 00:26:54;;;;;;;8.20;7.45;;;10.60;99.90;;;;;;5067366;28;20427;-70
2022/12/21 00:29:20;;;;;;;8.63;7.82;;;10.50;99.90;;;;;;5068459;28;20434;-69
2022/12/21 00:31:48;;;;;;;7.40;6.80;;;10.50;99.90;;;;;;5074134;28;20434;-69
2022/12/21 00:34:17;;;;;;;7.30;6.70;;;10.50;99.90;;;;;;5069842;28;20898;-70
2022/12/21 00:36:44;;;;;;;7.63;7.03;;;10.50;99.90;;;;;;5070381;28;20419;-69
2022/12/21 00:39:13;;;;;;;7.80;7.10;;;10.50;99.90;;;;;;5070171;28;20411;-69
2022/12/21 00:41:40;;;;;;;7.72;7.03;;;10.50;99.90;;;;;;5070070;28;20431;-69
2022/12/21 00:44:07;;;;;;;8.45;7.07;;;10.50;99.90;;;;;;5071278;28;20453;-69
2022/12/21 00:46:34;;;;;;;6.90;6.30;;;10.60;99.90;;;;;;5076011;28;20442;-69
2022/12/21 00:49:04;;;;;;;9.02;6.55;;;10.50;99.90;;;;;;5070111;28;20802;-69
2022/12/21 00:51:32;;;;;;;6.45;5.95;;;10.40;99.90;;;;;;5070382;28;20450;-69
2022/12/21 00:54:00;;;;;;;6.88;6.28;;;10.40;99.90;;;;;;5069638;28;20419;-69
2022/12/21 00:56:29;;;;;;;5.85;5.30;;;10.40;99.90;;;;;;5069083;28;20419;-69
2022/12/21 00:58:56;;;;;;;5.13;4.63;;;10.40;99.90;;;;;;5071563;28;20420;-69
2022/12/21 01:01:25;;;;;;;5.88;5.47;;;10.40;99.90;;;;;;5074058;28;20423;-69
2022/12/21 01:03:52;;;;;;;6.05;5.55;;;10.40;99.90;;;;;;5069867;28;20419;-69
2022/12/21 01:06:20;;;;;;;4.93;4.63;;;10.40;99.90;;;;;;5070110;28;20419;-69
2022/12/21 01:08:47;;;;;;;5.97;5.10;;;10.40;99.90;;;;;;5070042;28;20442;-69
2022/12/21 01:11:16;;;;;;;5.40;5.00;;;10.50;99.90;;;;;;5069812;28;20427;-68
2022/12/21 01:13:45;;;;;;;5.13;4.72;;;10.50;99.90;;;;;;5077775;28;20443;-69
2022/12/21 01:16:15;;;;;;;5.28;4.88;;;10.50;99.90;;;;;;5069938;28;20419;-68
2022/12/21 01:18:42;;;;;;;5.05;4.65;;;10.50;99.90;;;;;;5069745;28;20905;-68
2022/12/21 01:21:15;;;;;;;5.30;4.90;;;10.40;99.90;;;;;;5069817;28;20403;-67
2022/12/21 01:23:41;;;;;;;5.88;5.38;;;10.40;99.90;;;;;;5069369;28;20416;-67
2022/12/21 01:26:08;;;;;;;5.68;5.18;;;10.40;99.90;;;;;;5071876;28;20835;-69
2022/12/21 01:28:35;;;;;;;5.25;4.85;;;10.40;99.90;;;;;;5079305;28;20427;-70
2022/12/21 01:31:03;;;;;;;5.80;5.30;;;10.40;99.90;;;;;;5069625;28;20411;-69
2022/12/21 01:33:30;;;;;;;5.85;5.40;;;10.40;99.90;;;;;;5051342;28;20417;-69
2022/12/21 01:35:57;;;;;;;5.97;5.47;;;10.30;99.90;;;;;;5049744;28;20421;-69
2022/12/21 01:38:24;;;;;;;6.40;5.90;;;10.30;99.90;;;;;;5065282;28;20793;-68
2022/12/21 01:40:50;;;;;;;6.10;5.60;;;10.30;99.90;;;;;;5076883;28;20417;-69
2022/12/21 01:43:19;;;;;;;5.80;5.40;;;10.30;99.90;;;;;;5077970;28;20584;-69
2022/12/21 01:45:51;;;;;;;6.47;5.97;;;10.30;99.90;;;;;;5069513;28;20419;-68
2022/12/21 01:48:20;;;;;;;5.90;5.40;;;10.30;99.90;;;;;;5069699;28;20462;-69
2022/12/21 01:50:55;;;;;;;6.00;5.60;;;10.30;99.90;;;;;;5068826;28;20435;-68
2022/12/21 01:53:25;;;;;;;7.05;6.55;;;10.30;99.90;;;;;;5069083;28;20424;-69
2022/12/21 01:55:55;;;;;;;6.63;6.13;;;10.30;99.90;;;;;;5076476;28;20433;-70
2022/12/21 01:58:25;;;;;;;6.40;5.90;;;10.20;99.90;;;;;;5068936;28;20427;-70
2022/12/21 02:00:52;;;;;;;6.60;6.07;;;10.20;99.90;;;;;;5067511;28;20411;-70
2022/12/21 02:03:25;;;;;;;6.15;5.65;;;10.20;99.90;;;;;;5076819;28;20427;-68
2022/12/21 02:05:55;;;;;;;6.78;6.18;;;10.40;99.90;;;;;;5068917;28;20420;-68
2022/12/21 02:08:22;;;;;;;6.82;6.30;;;10.40;99.90;;;;;;5112551;22;20403;-73
2022/12/21 02:10:50;;;;;;;6.50;5.90;;;10.40;99.90;;;;;;5021049;28;20438;-73
2022/12/21 02:13:17;;;;;;;6.25;5.65;;;10.50;99.90;;;;;;5019008;28;20856;-74
2022/12/21 02:16:07;;;;;;;5.95;5.45;;;10.50;99.90;;;;;;5025937;28;20437;-75
2022/12/21 02:19:01;;;;;;;5.53;5.00;;;10.50;99.90;;;;;;5026075;28;20521;-72
2022/12/21 02:21:29;;;;;;;6.20;5.70;;;10.50;99.90;;;;;;5025278;28;20492;-72
2022/12/21 02:24:40;;;;;;;6.47;5.88;;;10.50;99.90;;;;;;5025459;28;20419;-72
2022/12/21 02:28:04;;;;;;;6.10;5.50;;;10.60;99.90;;;;;;5023973;28;20514;-73
2022/12/21 02:30:53;;;;;;;6.20;5.68;;;10.50;99.90;;;;;;5023851;28;20450;-72
2022/12/21 02:33:27;;;;;;;6.10;5.60;;;10.50;99.90;;;;;;5027241;28;20434;-74
2022/12/21 02:36:06;;;;;;;5.70;5.28;;;10.50;99.90;;;;;;5025074;28;20423;-74
2022/12/21 02:38:47;;;;;;;6.25;5.75;;;10.60;99.90;;;;;;5025509;28;20415;-74
2022/12/21 02:41:25;;;;;;;7.00;6.40;;;10.60;99.90;;;;;;5018107;28;20411;-74
2022/12/21 02:44:15;;;;;;;6.68;6.18;;;10.60;99.90;;;;;;5005442;28;20417;-74
2022/12/21 02:46:58;;;;;;;6.88;6.28;;;10.60;99.90;;;;;;5022899;28;20504;-74
2022/12/21 02:49:33;;;;;;;6.53;6.03;;;10.50;99.90;;;;;;5019983;28;20793;-71
2022/12/21 02:52:05;;;;;;;7.43;6.82;;;10.60;99.90;;;;;;5022759;28;20431;-74
2022/12/21 02:54:31;;;;;;;6.63;6.05;;;10.60;99.90;;;;;;5033407;28;20437;-74
2022/12/21 02:56:58;;;;;;;7.05;6.45;;;10.60;99.90;;;;;;5034932;28;20537;-75
2022/12/21 02:59:29;;;;;;;7.15;6.55;;;10.60;99.90;;;;;;5034764;28;20783;-74
2022/12/21 03:02:33;;;;;;;7.17;6.57;;;10.60;99.90;;;;;;5033320;28;20451;-74
2022/12/21 03:05:19;;;;;;;7.20;6.60;;;10.60;99.90;;;;;;5029819;28;20458;-75
2022/12/21 03:07:58;;;;;;;7.60;7.00;;;10.50;99.90;;;;;;5024154;28;20881;-75
2022/12/21 03:10:38;;;;;;;7.35;6.75;;;10.50;99.90;;;;;;5020346;28;20519;-74
2022/12/21 03:13:17;;;;;;;7.60;7.00;;;10.50;99.90;;;;;;5033499;28;20423;-74
2022/12/21 03:15:49;;;;;;;8.10;7.40;;;10.40;99.90;;;;;;5044638;28;20462;-75
2022/12/21 03:18:24;;;;;;;8.50;7.70;;;10.40;99.90;;;;;;5041051;28;20796;-75
2022/12/21 03:20:57;;;;;;;7.40;6.70;;;10.40;99.90;;;;;;5030618;28;20439;-74
2022/12/21 03:23:32;;;;;;;8.80;8.00;;;10.40;99.90;;;;;;5023317;28;20423;-75
2022/12/21 03:26:05;;;;;;;7.97;7.20;;;10.40;99.90;;;;;;5018799;28;21069;-74
2022/12/21 03:28:35;;;;;;;8.45;7.70;;;10.30;99.90;;;;;;5038665;28;20428;-75
2022/12/21 03:31:06;;;;;;;8.10;7.30;;;10.30;99.90;;;;;;5032875;28;20446;-75
2022/12/21 03:33:39;;;;;;;8.55;7.80;;;10.30;99.90;;;;;;5020194;28;20462;-74
2022/12/21 03:36:10;;;;;;;8.45;7.72;;;10.30;99.90;;;;;;5015280;28;21145;-74
2022/12/21 03:38:43;;;;;;;8.85;8.07;;;10.30;99.90;;;;;;5019972;28;20419;-73
2022/12/21 03:41:15;;;;;;;8.60;7.80;;;10.30;99.90;;;;;;5021823;28;20450;-75
2022/12/21 03:43:43;;;;;;;8.30;7.60;;;10.30;99.90;;;;;;5018398;28;20442;-74
2022/12/21 03:46:16;;;;;;;8.30;7.60;;;10.30;99.90;;;;;;5018689;28;20421;-73
2022/12/21 03:48:50;;;;;;;8.63;7.90;;;10.30;99.90;;;;;;5045754;28;20425;-74
2022/12/21 03:51:22;;;;;;;9.07;8.27;;;10.20;99.90;;;;;;5029716;28;20426;-74
2022/12/21 03:53:54;;;;;;;8.57;7.88;;;10.20;99.90;;;;;;5031303;28;20416;-74
2022/12/21 03:56:25;;;;;;;8.80;8.10;;;10.20;99.90;;;;;;5035026;28;20438;-74
2022/12/21 03:58:51;;;;;;;8.70;8.05;;;10.10;99.90;;;;;;5029515;28;20417;-74
2022/12/21 04:01:27;;;;;;;8.40;7.60;;;10.10;99.90;;;;;;5044881;28;20412;-75
2022/12/21 04:04:01;;;;;;;8.80;8.00;;;10.10;99.90;;;;;;5047979;28;20425;-74
2022/12/21 04:06:32;;;;;;;8.15;7.55;;;10.10;99.90;;;;;;5042158;28;20789;-74
2022/12/21 04:08:59;;;;;;;7.97;7.38;;;10.10;99.90;;;;;;5018718;28;20422;-75
2022/12/21 04:14:17;;;;;;;8.30;7.70;;;10.00;99.90;;;;;;5025073;28;20576;-75
2022/12/21 04:16:44;;;;;;;7.40;6.90;;;10.10;99.90;;;;;;5022902;28;20510;-74
2022/12/21 04:21:56;;;;;;;8.30;7.60;;;10.00;99.90;;;;;;5027556;28;20518;-74
2022/12/21 04:30:00;;;;;;;9.10;8.40;;;9.90;99.90;;;;;;5029079;28;20491;-74
2022/12/21 04:32:26;;;;;;;8.80;8.10;;;10.00;99.90;;;;;;5025324;28;20827;-74
2022/12/21 04:34:54;;;;;;;8.40;7.80;;;9.90;99.90;;;;;;5027760;28;20502;-75
2022/12/21 04:37:32;;;;;;;9.20;8.40;;;9.90;99.90;;;;;;5025875;28;20435;-75
2022/12/21 04:40:00;;;;;;;9.25;8.55;;;9.90;99.90;;;;;;5026733;28;20426;-75
2022/12/21 04:42:27;;;;;;;9.60;8.80;;;9.90;99.90;;;;;;5026155;28;20505;-74
2022/12/21 04:44:54;;;;;;;9.65;8.85;;;10.00;99.90;;;;;;5035769;28;20424;-74
2022/12/21 04:47:20;;;;;;;8.90;8.20;;;9.90;99.90;;;;;;5026987;28;20780;-74
2022/12/21 04:49:47;;;;;;;9.00;8.30;;;10.00;99.90;;;;;;5034802;28;20427;-74
2022/12/21 04:52:15;;;;;;;9.55;8.75;;;9.90;99.90;;;;;;5028685;28;20437;-73
2022/12/21 04:54:42;;;;;;;10.00;9.10;;;9.90;99.90;;;;;;5038258;28;20562;-74
2022/12/21 04:57:08;;;;;;;10.32;9.38;;;9.90;99.90;;;;;;5022566;28;20436;-74
2022/12/21 04:59:35;;;;;;;10.02;9.13;;;9.90;99.90;;;;;;5026904;28;20518;-73
2022/12/21 05:02:02;;;;;;;9.68;8.77;;;9.90;99.90;;;;;;5025272;28;20435;-73
2022/12/21 05:04:29;;;;;;;10.32;9.43;;;9.90;99.90;;;;;;5021399;28;20448;-73
2022/12/21 05:06:55;;;;;;;10.27;9.38;;;9.90;99.90;;;;;;5021544;28;20427;-73
2022/12/21 05:09:25;;;;;;;10.27;9.40;;;9.90;99.90;;;;;;5025346;28;21075;-74
2022/12/21 05:11:52;;;;;;;10.80;9.90;;;9.90;99.90;;;;;;5027284;28;20468;-74
2022/12/21 05:14:19;;;;;;;10.77;9.87;;;9.90;99.90;;;;;;5022088;28;20434;-74
2022/12/21 05:16:46;;;;;;;10.90;10.00;;;10.00;99.90;;;;;;5025800;28;20434;-74
2022/12/21 05:19:13;;;;;;;10.80;9.80;;;9.90;99.90;;;;;;5031034;28;20467;-75
2022/12/21 05:21:40;;;;;;;10.68;9.77;;;9.90;99.90;;;;;;5029575;28;20435;-73
2022/12/21 05:24:07;;;;;;;10.35;9.40;;;10.00;99.90;;;;;;5027769;28;20435;-75
2022/12/21 05:26:35;;;;;;;10.98;9.90;;;10.00;99.90;;;;;;5029839;28;20442;-73
2022/12/21 05:29:02;;;;;;;10.73;9.85;;;10.00;99.90;;;;;;5022055;28;20431;-76
2022/12/21 05:31:29;;;;;;;12.00;11.00;;;10.00;99.90;;;;;;5027541;28;20538;-74
2022/12/21 05:33:56;;;;;;;11.32;10.35;;;10.00;99.90;;;;;;5030724;28;20460;-74
2022/12/21 05:36:24;;;;;;;11.50;10.40;;;10.10;99.90;;;;;;5029109;28;20423;-74
2022/12/21 05:38:51;;;;;;;11.30;10.30;;;10.10;99.90;;;;;;5025708;28;20543;-75
2022/12/21 05:41:18;;;;;;;12.35;11.35;;;10.00;99.90;;;;;;5025662;28;20431;-75
2022/12/21 05:43:46;;;;;;;12.98;11.88;;;10.00;99.90;;;;;;5029133;28;20885;-75
2022/12/21 05:46:14;;;;;;;12.20;11.20;;;10.00;99.90;;;;;;5036758;28;20426;-74
2022/12/21 05:48:40;;;;;;;12.95;11.85;;;10.00;99.90;;;;;;5025788;28;20417;-75
2022/12/21 05:51:09;;;;;;;12.82;11.73;;;10.00;99.90;;;;;;5027167;28;20439;-75
2022/12/21 05:53:36;;;;;;;11.80;10.70;;;10.00;99.90;;;;;;5028619;28;20424;-75
2022/12/21 05:56:03;;;;;;;12.43;11.32;;;9.90;99.90;;;;;;5026908;28;20453;-76
2022/12/21 05:58:30;;;;;;;12.50;11.20;;;9.90;99.90;;;;;;5027960;28;20448;-75
2022/12/21 06:01:00;;;;;;;13.75;11.80;;;9.90;99.90;;;;;;5024418;28;20801;-75
2022/12/21 06:03:27;;;;;;;13.60;12.30;;;9.90;99.90;;;;;;5025231;28;20502;-75
2022/12/21 06:05:54;;;;;;;13.48;12.18;;;9.90;99.90;;;;;;5027739;28;20438;-75
2022/12/21 06:08:21;;;;;;;13.60;12.27;;;9.90;99.90;;;;;;5024829;28;20888;-75
2022/12/21 06:10:47;;;;;;;13.38;12.18;;;9.80;99.90;;;;;;5023516;28;20438;-76
2022/12/21 06:13:14;;;;;;;14.75;13.35;;;9.80;99.90;;;;;;5023583;28;20913;-75
2022/12/21 06:15:41;;;;;;;14.30;13.00;;;9.80;99.90;;;;;;5024852;28;20481;-75
2022/12/21 06:18:09;;;;;;;14.90;13.40;;;9.80;99.90;;;;;;5025178;28;20438;-74
2022/12/21 06:20:36;;;;;;;14.27;12.98;;;9.80;99.90;;;;;;5024943;28;21010;-75
2022/12/21 06:23:03;;;;;;;13.27;12.15;;;9.90;99.90;;;;;;5024299;28;20419;-73
2022/12/21 06:25:30;;;;;;;12.85;11.65;;;9.90;99.90;;;;;;5024419;28;20932;-75
2022/12/21 06:27:57;;;;;;;11.40;10.50;;;9.90;99.90;;;;;;5020358;28;20471;-74
2022/12/21 06:30:24;;;;;;;11.10;10.25;;;9.90;99.90;;;;;;5024490;28;20944;-75
2022/12/21 06:32:51;;;;;;;11.68;10.57;;;10.00;99.90;;;;;;5020360;28;20437;-77
2022/12/21 06:35:19;;;;;;;11.10;10.20;;;9.90;99.90;;;;;;5028415;28;20460;-76
2022/12/21 06:37:46;;;;;;;11.48;10.38;;;9.90;99.90;;;;;;5034331;28;20428;-76
2022/12/21 06:40:13;;;;;;;9.90;9.10;;;9.90;99.90;;;;;;5023569;28;20510;-76
2022/12/21 06:42:40;;;;;;;11.05;10.15;;;9.90;99.90;;;;;;5024876;28;20589;-75
2022/12/21 06:45:07;;;;;;;10.40;9.35;;;9.90;99.90;;;;;;5028785;28;20516;-75
2022/12/21 06:47:34;;;;;;;10.30;9.40;;;9.90;99.90;;;;;;5025452;28;20441;-74
2022/12/21 06:50:00;;;;;;;9.50;8.60;;;9.90;99.90;;;;;;5023095;28;20441;-75
2022/12/21 06:52:28;;;;;;;9.40;8.60;;;9.90;99.90;;;;;;5020835;28;20438;-75
2022/12/21 06:54:55;;;;;;;8.90;8.15;;;9.90;99.90;;;;;;5032844;28;20455;-74
2022/12/21 06:57:22;;;;;;;8.70;7.90;;;9.90;99.90;;;;;;5023733;28;20419;-75
2022/12/21 06:59:49;;;;;;;8.15;7.45;;;10.00;99.90;;;;;;5014552;28;20750;-74
2022/12/21 07:02:16;;;;;;;7.55;6.95;;;9.90;99.90;;;;;;5022909;28;20434;-74
2022/12/21 07:04:43;;;;;;;7.20;6.50;;;10.00;99.90;;;;;;5025591;28;20427;-76
2022/12/21 07:07:09;;;;;;;7.70;6.90;;;10.00;99.90;;;;;;5029743;28;20473;-74
2022/12/21 07:09:38;;;;;;;7.25;6.65;;;9.90;99.90;;;;;;5030006;28;20439;-76
2022/12/21 07:12:05;;;;;;;8.10;7.30;;;10.00;99.90;;;;;;5030391;28;20422;-78
2022/12/21 07:14:31;;;;;;;8.20;7.50;;;9.90;99.90;;;;;;5026015;28;20415;-75
2022/12/21 07:16:58;;;;;;;8.10;7.30;;;9.90;99.90;;;;;;5024118;28;20450;-76
2022/12/21 07:19:25;;;;;;;7.50;6.90;;;9.90;99.90;;;;;;5024282;28;20429;-74
2022/12/21 07:21:52;;;;;;;8.13;7.00;;;9.90;99.90;;;;;;5027498;28;20523;-76
2022/12/21 07:24:18;;;;;;;7.88;7.25;;;9.90;99.90;;;;;;5021449;28;20442;-77
2022/12/21 07:26:47;;;;;;;7.43;6.82;;;9.90;99.90;;;;;;5024094;28;20414;-74
2022/12/21 07:29:13;;;;;;;7.88;7.18;;;9.90;99.90;;;;;;5023906;28;20430;-75
2022/12/21 07:31:40;;;;;;;7.00;6.40;;;9.90;99.90;;;;;;5023331;28;20431;-74
2022/12/21 07:34:07;;;;;;;7.88;7.10;;;9.90;99.90;;;;;;5030467;28;20435;-74
2022/12/21 07:36:34;;;;;;;7.57;6.97;;;9.90;99.90;;;;;;5031443;28;20415;-76
2022/12/21 07:39:01;;;;;;;7.05;6.45;;;10.00;99.90;;;;;;5023480;28;20422;-75
2022/12/21 07:41:27;;;;;;;7.13;6.53;;;10.00;99.90;;;;;;5025522;28;20446;-74
2022/12/21 07:43:56;;;;;;;7.05;6.40;;;10.00;99.90;;;;;;5026760;28;20964;-77
2022/12/21 07:46:22;;;;;;;7.50;6.80;;;10.00;99.90;;;;;;5019657;28;20421;-73
2022/12/21 07:48:50;;;;;;;8.40;7.60;;;9.90;99.90;;;;;;5029107;28;20434;-76
2022/12/21 07:51:17;;;;;;;8.70;7.90;;;9.90;99.90;;;;;;5028116;28;20944;-74
2022/12/21 07:53:44;;;;;;;8.60;7.80;;;9.90;99.90;;;;;;5024362;28;20443;-73
2022/12/21 07:56:14;;;;;;;7.60;6.90;;;9.90;99.90;;;;;;5020612;28;20458;-73
2022/12/21 07:58:41;;;;;;;8.02;7.32;;;10.00;99.90;;;;;;5014282;28;20428;-75
2022/12/21 08:01:11;;;;;;;6.53;5.93;;;10.00;99.90;;;;;;5026239;28;20442;-74
2022/12/21 08:03:39;;;;;;;5.40;5.00;;;10.00;99.90;;;;;;5029530;28;20486;-76
2022/12/21 08:06:07;;;;;;;5.30;4.80;;;10.20;99.90;;;;;;5036105;28;20433;-75
2022/12/21 08:11:05;;;;;;;4.63;4.22;;;10.30;99.90;;;;;;5078542;22;20462;-67
2022/12/21 08:13:31;;;;;;;4.50;3.97;;;10.30;99.90;;;;;;5061396;28;20427;-67
2022/12/21 08:16:00;;;;;;;4.30;3.90;;;10.40;99.90;;;;;;5052565;28;20422;-68
2022/12/21 08:18:28;;;;;;;4.40;4.00;;;10.40;99.90;;;;;;5060291;28;20862;-67
2022/12/21 08:20:55;;;;;;;3.97;3.67;;;10.40;99.90;;;;;;5054704;28;20454;-67
2022/12/21 08:23:22;;;;;;;4.60;4.30;;;10.40;99.90;;;;;;5066139;28;20508;-67
2022/12/21 08:25:49;;;;;;;4.20;3.80;;;10.40;99.90;;;;;;5059344;28;20442;-68
2022/12/21 08:28:15;;;;;;;4.22;3.83;;;10.40;99.90;;;;;;5057738;28;20426;-67
2022/12/21 08:30:42;;;;;;;5.13;4.50;;;10.50;99.90;;;;;;5065255;28;20437;-68
2022/12/21 08:33:09;;;;;;;4.68;4.22;;;10.50;99.90;;;;;;5062133;28;20422;-66
2022/12/21 08:35:38;;;;;;;4.60;4.20;;;10.50;99.90;;;;;;5065104;28;20451;-67
2022/12/21 08:38:04;;;;;;;4.40;4.00;;;10.40;99.90;;;;;;5067097;28;20529;-67
2022/12/21 08:40:32;;;;;;;4.60;4.10;;;10.50;99.90;;;;;;5062686;28;20438;-67
2022/12/21 08:42:59;;;;;;;4.33;3.93;;;10.50;99.90;;;;;;5056448;28;20435;-68
2022/12/21 08:45:25;;;;;;;4.50;4.10;;;10.50;99.90;;;;;;5053016;28;20433;-68
2022/12/21 08:47:52;;;;;;;4.95;4.45;;;10.50;99.90;;;;;;5060082;28;20431;-68
2022/12/21 08:50:19;;;;;;;4.05;3.75;;;10.50;99.90;;;;;;5068841;28;20423;-68
2022/12/21 08:52:48;;;;;;;4.70;4.18;;;10.50;99.90;;;;;;5068987;28;20423;-68
2022/12/21 08:55:15;;;;;;;4.40;4.00;;;10.50;99.90;;;;;;5065115;28;20854;-67
2022/12/21 08:57:41;;;;;;;4.65;4.15;;;10.40;99.90;;;;;;5053249;28;20433;-68
2022/12/21 09:00:10;;;;;;;5.90;4.55;;;10.50;99.90;;;;;;5058251;28;20424;-69
2022/12/21 09:02:37;;;;;;;4.80;4.30;;;10.50;99.90;;;;;;5066543;28;20407;-69
2022/12/21 09:05:04;;;;;;;5.18;4.30;;;10.50;99.90;;;;;;5049787;28;20428;-67
2022/12/21 09:07:31;;;;;;;5.20;4.70;;;10.50;99.90;;;;;;5063459;28;20427;-67
2022/12/21 09:09:59;;;;;;;4.80;4.30;;;10.50;99.90;;;;;;5062452;28;20434;-68
2022/12/21 09:12:27;;;;;;;4.30;3.90;;;10.50;99.90;;;;;;5067318;28;20466;-68
2022/12/21 09:14:53;;;;;;;4.93;3.95;;;10.50;99.90;;;;;;5057318;28;20421;-68
2022/12/21 09:17:20;;;;;;;4.53;4.13;;;10.50;99.90;;;;;;5082223;28;20418;-70
2022/12/21 09:19:47;;;;;;;5.43;4.93;;;10.60;99.90;;;;;;5058585;28;20431;-68
2022/12/21 09:22:13;;;;;;;5.20;4.80;;;10.60;99.90;;;;;;5053829;28;20438;-68
2022/12/21 09:24:40;;;;;;;4.60;4.20;;;10.60;99.90;;;;;;5061067;28;20431;-70
2022/12/21 09:27:09;;;;;;;4.28;3.90;;;10.60;99.90;;;;;;5058739;28;20926;-69
2022/12/21 09:29:35;;;;;;;4.32;4.00;;;10.60;99.90;;;;;;5055208;28;20448;-68
2022/12/21 09:32:02;;;;;;;5.07;4.60;;;10.70;99.90;;;;;;5066419;28;21102;-69
2022/12/21 09:34:29;;;;;;;4.40;4.00;;;10.60;99.90;;;;;;5072697;28;20435;-68
2022/12/21 09:36:56;;;;;;;4.53;3.80;;;10.60;99.90;;;;;;5064707;28;20415;-67
2022/12/21 09:39:23;;;;;;;5.40;4.30;;;10.60;99.90;;;;;;5055541;28;20440;-69
2022/12/21 09:41:59;;;;;;;5.50;4.40;;;10.60;99.90;;;;;;5051258;28;20419;-69
2022/12/21 09:44:37;;;;;;;5.50;5.00;;;10.70;99.90;;;;;;5056820;28;20421;-68
2022/12/21 09:47:07;;;;;;;5.73;5.00;;;10.70;99.90;;;;;;5059773;28;20435;-68
2022/12/21 09:49:40;;;;;;;5.18;4.78;;;10.60;99.90;;;;;;5059631;28;20423;-68
2022/12/21 09:52:13;;;;;;;6.03;5.43;;;10.70;99.90;;;;;;5065031;28;20434;-69
2022/12/21 09:54:43;;;;;;;6.10;5.60;;;10.70;99.90;;;;;;5061093;28;20427;-69
2022/12/21 09:57:13;;;;;;;6.20;5.60;;;10.80;99.90;;;;;;5053910;28;20421;-68
2022/12/21 09:59:42;;;;;;;6.07;5.55;;;10.80;99.90;;;;;;5053810;28;20435;-68
2022/12/21 10:02:20;;;;;;;6.70;6.10;;;10.80;99.90;;;;;;5065922;28;20518;-70
2022/12/21 10:05:02;;;;;;;7.30;6.60;;;10.80;99.90;;;;;;5059724;28;20432;-68
2022/12/21 10:07:51;;;;;;;7.30;6.70;;;10.70;99.90;;;;;;5048423;28;20429;-68
2022/12/21 10:10:25;;;;;;;8.05;7.35;;;10.70;99.90;;;;;;5060559;28;20430;-69
2022/12/21 10:13:00;;;;;;;8.50;7.70;;;10.60;99.90;;;;;;5061713;28;20461;-69
2022/12/21 10:15:35;;;;;;;8.40;7.60;;;10.50;99.90;;;;;;5056770;28;20427;-67
2022/12/21 10:18:13;;;;;;;8.20;7.50;;;10.60;99.90;;;;;;5049272;28;20780;-70
2022/12/21 10:20:53;;;;;;;8.32;7.50;;;10.50;99.90;;;;;;5051916;28;20419;-69
2022/12/21 10:23:25;;;;;;;7.82;7.13;;;10.50;99.90;;;;;;5053302;28;20429;-69
2022/12/21 10:25:56;;;;;;;8.48;7.78;;;10.50;99.90;;;;;;5053919;28;20446;-69
2022/12/21 10:28:38;;;;;;;8.85;7.57;;;10.40;99.90;;;;;;5057385;28;20416;-69
2022/12/21 10:31:08;;;;;;;7.38;6.68;;;10.40;99.90;;;;;;5048283;28;20424;-69
2022/12/21 10:33:40;;;;;;;7.15;6.55;;;10.50;99.90;;;;;;5061541;28;20435;-70
2022/12/21 10:36:14;;;;;;;7.13;6.43;;;10.40;99.90;;;;;;5066417;28;20416;-69
2022/12/21 10:38:40;;;;;;;7.13;6.43;;;10.40;99.90;;;;;;5056416;28;20824;-70
2022/12/21 10:41:13;;;;;;;7.65;6.85;;;10.40;98.80;;;;;;5067818;28;20419;-70
2022/12/21 10:43:41;;;;;;;7.90;7.10;;;10.20;99.20;;;;;;5067097;28;20423;-69
2022/12/21 10:46:09;;;;;;;7.70;7.00;;;10.20;99.90;;;;;;5052670;28;20929;-70
2022/12/21 10:48:36;;;;;;;7.05;6.35;;;10.30;99.90;;;;;;5051321;28;20428;-69
2022/12/21 10:51:13;;;;;;;7.00;6.30;;;10.30;99.70;;;;;;5054843;28;20431;-68
2022/12/21 10:53:40;;;;;;;7.45;6.47;;;10.40;99.50;;;;;;5059776;28;20424;-69
2022/12/21 10:56:07;;;;;;;7.22;6.53;;;10.50;98.60;;;;;;5063377;28;20506;-69
2022/12/21 10:58:36;;;;;;;6.82;6.22;;;10.50;98.50;;;;;;5060586;28;20922;-69
2022/12/21 11:01:05;;;;;;;6.70;6.10;;;10.50;98.50;;;;;;5056312;28;20928;-68
2022/12/21 11:03:36;;;;;;;7.10;6.20;;;10.50;98.00;;;;;;5060092;28;20425;-71
2022/12/21 11:06:12;;;;;;;7.00;6.00;;;10.60;97.90;;;;;;5057213;28;20435;-68
2022/12/21 11:08:45;;;;;;;7.55;6.20;;;10.60;97.40;;;;;;5059095;28;20480;-67
2022/12/21 11:11:27;;;;;;;8.23;6.32;;;10.60;97.20;;;;;;5066621;28;20438;-67
2022/12/21 11:13:59;;;;;;;6.70;5.70;;;10.60;97.20;;;;;;5067740;28;20428;-69
2022/12/21 11:16:28;;;;;;;6.47;5.85;;;10.70;97.00;;;;;;5060754;28;20420;-69
2022/12/21 11:18:58;;;;;;;5.53;4.80;;;10.80;97.00;;;;;;5048493;28;20830;-69
2022/12/21 11:21:38;;;;;;;6.07;5.30;;;10.80;96.20;;;;;;5061044;28;20419;-69
2022/12/21 11:24:15;;;;;;;7.40;4.97;;;10.80;96.50;;;;;;5057755;28;21072;-69
2022/12/21 11:26:44;;;;;;;6.50;5.35;;;10.70;96.00;;;;;;5061678;28;20419;-68
2022/12/21 11:29:19;;;;;;;5.23;4.73;;;10.70;95.60;;;;;;5050814;28;20430;-68
2022/12/21 11:31:46;;;;;;;4.90;4.40;;;10.60;95.70;;;;;;5048577;28;21143;-68
2022/12/21 11:34:40;;;;;;;5.38;3.97;;;10.60;95.50;;;;;;5054670;28;20935;-69
2022/12/21 11:37:21;;;;;;;4.93;4.40;;;10.50;95.60;;;;;;5038126;28;20446;-70
2022/12/21 11:39:48;;;;;;;6.55;4.20;;;10.40;95.70;;;;;;5056055;28;20419;-69
2022/12/21 11:42:17;;;;;;;5.45;4.40;;;10.40;96.10;;;;;;5048088;28;20417;-69
2022/12/21 11:44:44;;;;;;;5.32;4.13;;;10.40;95.90;;;;;;5072931;28;20445;-69
2022/12/21 11:47:27;;;;;;;5.03;4.53;;;10.40;96.30;;;;;;5067200;28;20420;-70
2022/12/21 11:50:12;;;;;;;5.40;4.80;;;10.40;95.40;;;;;;5059384;28;20524;-69
2022/12/21 11:53:21;;;;;;;5.45;4.60;;;10.40;95.90;;;;;;5052087;28;20436;-68
2022/12/21 11:56:02;;;;;;;5.70;4.40;;;10.40;96.10;;;;;;5046671;28;20431;-69
2022/12/21 11:58:43;;;;;;;6.47;4.70;;;10.50;95.80;;;;;;5050930;28;20446;-69
2022/12/21 12:01:20;;;;;;;5.97;4.00;;;10.60;95.60;;;;;;5062647;28;20411;-69
2022/12/21 12:04:02;;;;;;;7.15;4.60;;;10.60;94.70;;;;;;5051530;28;20429;-71
2022/12/21 12:06:47;;;;;;;7.30;4.18;;;10.60;94.60;;;;;;5053599;28;20873;-68
2022/12/21 12:09:29;;;;;;;5.90;3.80;;;10.50;94.80;;;;;;5056303;28;20777;-68
2022/12/21 12:12:05;;;;;;;6.18;4.00;;;10.50;94.90;;;;;;5067246;28;20422;-70
2022/12/21 12:14:50;;;;;;;6.90;4.15;;;10.50;95.10;;;;;;5055166;28;20419;-67
2022/12/21 12:17:30;;;;;;;6.57;3.83;;;10.50;95.20;;;;;;5047298;28;20488;-68
2022/12/21 12:20:04;;;;;;;5.80;3.50;;;10.60;95.40;;;;;;5059538;28;20517;-68
2022/12/21 12:22:48;;;;;;;5.05;4.10;;;10.70;95.00;;;;;;5067310;28;20427;-68
2022/12/21 12:25:29;;;;;;;4.85;3.60;;;10.90;95.00;;;;;;5055811;28;20420;-68
2022/12/21 12:28:09;;;;;;;5.77;4.10;;;11.10;93.50;;;;;;5064549;28;20421;-68
2022/12/21 12:30:49;;;;;;;5.07;3.50;;;11.40;93.90;;;;;;5065332;28;20423;-68
2022/12/21 12:33:28;;;;;;;4.90;3.47;;;12.00;91.80;;;;;;5050363;28;20433;-68
2022/12/21 12:36:08;;;;;;;6.03;3.50;;;12.30;90.70;;;;;;5060892;28;20430;-68
2022/12/21 12:38:47;;;;;;;4.95;3.38;;;12.20;90.40;;;;;;5080941;28;20414;-69
2022/12/21 12:41:29;;;;;;;6.85;3.60;;;12.10;89.60;;;;;;5068215;28;20442;-69
2022/12/21 12:44:01;;;;;;;6.97;4.22;;;11.80;90.00;;;;;;5057545;28;20441;-68
2022/12/21 12:46:45;;;;;;;6.20;4.23;;;11.60;90.40;;;;;;5056581;28;20421;-68
2022/12/21 12:49:26;;;;;;;5.40;4.30;;;11.40;91.20;;;;;;5065937;28;21458;-68
2022/12/21 12:52:03;;;;;;;6.63;4.13;;;11.20;92.00;;;;;;5065992;28;20898;-68
2022/12/21 12:54:43;;;;;;;6.25;4.25;;;11.20;92.10;;;;;;5066941;28;20408;-67
2022/12/21 12:57:16;;;;;;;7.07;3.78;;;11.20;92.10;;;;;;5063668;28;20446;-69
2022/12/21 12:59:49;;;;;;;5.45;4.40;;;11.20;91.80;;;;;;5060672;28;20411;-69
2022/12/21 13:02:25;;;;;;;7.95;4.20;;;11.20;91.70;;;;;;5066415;28;20785;-67
2022/12/21 13:05:24;;;;;;;8.77;4.32;;;11.10;92.40;;;;;;5061032;28;20442;-69
2022/12/21 13:07:58;;;;;;;5.55;4.20;;;11.10;92.70;;;;;;5059012;28;20463;-69
2022/12/21 13:10:36;;;;;;;5.72;4.03;;;11.10;92.70;;;;;;5061418;28;20786;-68
2022/12/21 13:13:12;;;;;;;4.68;3.90;;;11.10;92.40;;;;;;5066545;28;20450;-68
2022/12/21 13:15:46;;;;;;;4.22;3.80;;;11.10;92.50;;;;;;5052794;28;20448;-68
2022/12/21 13:18:16;;;;;;;4.85;3.78;;;11.10;92.20;;;;;;5061187;28;20432;-68
2022/12/21 13:20:46;;;;;;;6.60;4.10;;;11.10;92.60;;;;;;5065046;28;20932;-67